createdAt,value
2023-01-28T00:00:34.908Z,3.34
2023-01-28T00:03:01.229Z,3.31
2023-01-28T00:05:27.560Z,3.34
2023-01-28T00:07:53.878Z,3.29
2023-01-28T00:10:20.688Z,3.27
2023-01-28T00:12:48.300Z,3.32
2023-01-28T00:15:14.937Z,3.33
2023-01-28T00:17:41.451Z,3.35
2023-01-28T00:20:08.369Z,3.33
2023-01-28T00:22:34.679Z,3.34
2023-01-28T00:25:00.960Z,3.29
2023-01-28T00:27:27.254Z,3.34
2023-01-28T00:29:54.920Z,3.29
2023-01-28T00:32:21.227Z,3.28
2023-01-28T00:34:47.505Z,3.25
2023-01-28T00:37:13.836Z,3.29
2023-01-28T00:39:40.153Z,3.30
2023-01-28T00:42:06.460Z,3.25
2023-01-28T00:44:32.776Z,3.36
2023-01-28T00:47:00.446Z,3.33
2023-01-28T00:49:26.743Z,3.41
2023-01-28T00:51:53.124Z,3.40
2023-01-28T00:54:19.445Z,3.33
2023-01-28T00:56:45.738Z,3.34
2023-01-28T00:59:12.034Z,3.33
2023-01-28T01:01:38.414Z,3.35
2023-01-28T01:04:06.108Z,3.37
2023-01-28T01:06:33.185Z,3.29
2023-01-28T01:08:59.582Z,3.39
2023-01-28T01:11:25.953Z,3.38
2023-01-28T01:13:52.913Z,3.36
2023-01-28T01:16:19.324Z,3.34
2023-01-28T01:18:45.637Z,3.31
2023-01-28T01:21:14.761Z,3.25
2023-01-28T01:23:41.061Z,3.22
2023-01-28T01:26:07.401Z,3.28
2023-01-28T01:28:33.972Z,3.21
2023-01-28T01:31:01.110Z,3.23
2023-01-28T01:33:28.367Z,3.33
2023-01-28T01:35:55.004Z,3.27
2023-01-28T01:38:22.691Z,3.21
2023-01-28T01:40:49.006Z,3.24
2023-01-28T01:43:16.534Z,3.24
2023-01-28T01:45:44.078Z,3.31
2023-01-28T01:48:13.443Z,3.31
2023-01-28T01:50:41.007Z,3.46
2023-01-28T01:53:09.625Z,3.34
2023-01-28T01:55:39.461Z,3.28
2023-01-28T01:58:08.544Z,3.20
2023-01-28T02:00:34.865Z,3.22
2023-01-28T02:03:01.364Z,3.13
2023-01-28T02:05:27.682Z,3.13
2023-01-28T02:07:55.636Z,3.18
2023-01-28T02:10:22.585Z,3.41
2023-01-28T02:12:53.463Z,3.52
2023-01-28T02:15:20.831Z,3.61
2023-01-28T02:17:47.460Z,3.58
2023-01-28T02:20:14.741Z,3.37
2023-01-28T02:22:55.965Z,3.23
2023-01-28T02:25:40.089Z,3.18
2023-01-28T02:28:13.663Z,3.13
2023-01-28T02:30:42.075Z,3.20
2023-01-28T02:33:11.073Z,3.18
2023-01-28T02:35:38.888Z,3.09
2023-01-28T02:38:08.338Z,3.05
2023-01-28T02:40:36.706Z,2.98
2023-01-28T02:43:03.161Z,3.05
2023-01-28T02:45:33.560Z,3.09
2023-01-28T02:47:59.881Z,3.10
2023-01-28T02:50:31.504Z,2.99
2023-01-28T02:53:03.133Z,2.96
2023-01-28T02:55:35.131Z,2.97
2023-01-28T02:58:06.509Z,3.03
2023-01-28T03:00:39.976Z,3.01
2023-01-28T03:03:10.263Z,3.39
2023-01-28T03:05:38.501Z,3.29
2023-01-28T03:08:06.543Z,3.13
2023-01-28T03:10:32.847Z,2.99
2023-01-28T03:12:59.429Z,2.92
2023-01-28T03:15:26.770Z,2.89
2023-01-28T03:17:58.438Z,2.85
2023-01-28T03:20:25.896Z,2.93
2023-01-28T03:22:53.638Z,2.93
2023-01-28T03:25:20.823Z,2.75
2023-01-28T03:27:48.828Z,2.75
2023-01-28T03:30:16.874Z,2.80
2023-01-28T03:32:43.706Z,2.76
2023-01-28T03:35:14.435Z,2.70
2023-01-28T03:37:40.989Z,2.76
2023-01-28T03:40:08.072Z,2.74
2023-01-28T03:42:34.414Z,2.76
2023-01-28T03:45:00.741Z,2.78
2023-01-28T03:47:28.284Z,2.92
2023-01-28T03:49:55.479Z,2.81
2023-01-28T03:52:23.867Z,2.66
2023-01-28T03:54:50.284Z,2.56
2023-01-28T03:57:17.629Z,2.56
2023-01-28T03:59:44.202Z,2.60
2023-01-28T04:02:11.321Z,2.58
2023-01-28T04:04:38.055Z,2.49
2023-01-28T04:07:04.599Z,2.49
2023-01-28T04:09:32.285Z,2.59
2023-01-28T04:11:58.595Z,2.59
2023-01-28T04:14:24.929Z,2.57
2023-01-28T04:16:51.262Z,2.59
2023-01-28T04:19:17.578Z,2.62
2023-01-28T04:21:43.908Z,2.62
2023-01-28T04:24:10.303Z,2.71
2023-01-28T04:26:38.053Z,2.67
2023-01-28T04:29:04.699Z,2.58
2023-01-28T04:31:31.042Z,2.55
2023-01-28T04:33:57.697Z,2.56
2023-01-28T04:36:24.432Z,2.59
2023-01-28T04:38:50.966Z,2.62
2023-01-28T04:41:17.425Z,2.63
2023-01-28T04:43:46.672Z,2.61
2023-01-28T04:46:13.101Z,2.60
2023-01-28T04:48:39.418Z,2.63
2023-01-28T04:51:05.945Z,2.67
2023-01-28T04:53:32.278Z,2.74
2023-01-28T04:55:58.860Z,2.76
2023-01-28T04:58:25.494Z,2.59
2023-01-28T05:00:55.019Z,2.68
2023-01-28T05:03:21.361Z,2.78
2023-01-28T05:05:47.661Z,2.95
2023-01-28T05:08:13.999Z,2.94
2023-01-28T05:10:40.316Z,2.76
2023-01-28T05:13:06.663Z,2.65
2023-01-28T05:15:32.960Z,2.59
2023-01-28T05:18:00.873Z,2.60
2023-01-28T05:20:27.412Z,2.59
2023-01-28T05:22:53.741Z,2.57
2023-01-28T05:25:20.054Z,2.67
2023-01-28T05:27:49.439Z,2.74
2023-01-28T05:30:16.524Z,2.59
2023-01-28T05:32:43.034Z,2.59
2023-01-28T05:35:11.652Z,2.58
2023-01-28T05:37:38.045Z,2.59
2023-01-28T05:40:04.841Z,2.60
2023-01-28T05:42:31.166Z,2.62
2023-01-28T05:44:57.494Z,2.59
2023-01-28T05:47:23.800Z,2.68
2023-01-28T05:49:50.138Z,2.74
2023-01-28T05:52:17.868Z,2.68
2023-01-28T05:54:44.201Z,2.64
2023-01-28T05:57:10.535Z,2.66
2023-01-28T05:59:36.904Z,2.59
2023-01-28T06:02:03.220Z,2.53
2023-01-28T06:04:29.519Z,2.41
2023-01-28T06:06:55.842Z,2.34
2023-01-28T06:09:23.533Z,2.30
2023-01-28T06:11:49.859Z,2.32
2023-01-28T06:14:16.213Z,2.38
2023-01-28T06:16:42.541Z,2.40
2023-01-28T06:19:08.843Z,2.39
2023-01-28T06:21:35.181Z,2.34
2023-01-28T06:24:01.514Z,2.39
2023-01-28T06:26:29.149Z,2.32
2023-01-28T06:28:55.495Z,2.22
2023-01-28T06:31:21.799Z,2.19
2023-01-28T06:33:48.117Z,2.17
2023-01-28T06:36:14.453Z,2.20
2023-01-28T06:38:40.754Z,2.27
2023-01-28T06:41:07.062Z,2.38
2023-01-28T06:43:34.785Z,2.37
2023-01-28T06:46:01.162Z,2.21
2023-01-28T06:48:27.884Z,2.24
2023-01-28T06:50:54.724Z,2.21
2023-01-28T06:53:21.523Z,2.13
2023-01-28T06:55:47.902Z,2.07
2023-01-28T06:58:14.371Z,2.05
2023-01-28T07:00:42.064Z,2.04
2023-01-28T07:03:08.475Z,2.04
2023-01-28T07:05:34.816Z,2.05
2023-01-28T07:08:01.148Z,2.05
2023-01-28T07:10:27.475Z,2.01
2023-01-28T07:12:53.863Z,2.02
2023-01-28T07:15:20.148Z,1.99
2023-01-28T07:17:47.777Z,1.99
2023-01-28T07:20:15.036Z,1.93
2023-01-28T07:22:42.356Z,2.01
2023-01-28T07:25:09.447Z,1.97
2023-01-28T07:27:35.743Z,1.97
2023-01-28T07:30:02.050Z,1.95
2023-01-28T07:32:28.441Z,1.95
2023-01-28T07:34:56.307Z,1.91
2023-01-28T07:37:22.663Z,1.90
2023-01-28T07:39:48.977Z,1.93
2023-01-28T07:42:15.311Z,1.93
2023-01-28T07:44:41.603Z,1.94
2023-01-28T07:47:07.950Z,1.94
2023-01-28T07:49:34.312Z,1.98
2023-01-28T07:52:02.097Z,2.03
2023-01-28T07:54:28.426Z,2.08
2023-01-28T07:56:54.730Z,2.05
2023-01-28T07:59:22.110Z,2.05
2023-01-28T08:01:48.444Z,2.06
2023-01-28T08:04:14.914Z,2.05
2023-01-28T08:06:41.260Z,2.04
2023-01-28T08:09:09.131Z,2.03
2023-01-28T08:11:37.933Z,2.01
2023-01-28T08:14:04.350Z,1.96
2023-01-28T08:16:30.656Z,2.02
2023-01-28T08:18:56.956Z,2.04
2023-01-28T08:21:23.515Z,2.10
2023-01-28T08:23:49.896Z,2.02
2023-01-28T08:26:17.565Z,2.08
2023-01-28T08:28:43.956Z,2.24
2023-01-28T08:31:10.375Z,2.24
2023-01-28T08:33:36.733Z,2.28
2023-01-28T08:36:03.549Z,2.25
2023-01-28T08:38:29.979Z,2.15
2023-01-28T08:40:56.543Z,2.14
2023-01-28T08:43:24.185Z,2.18
2023-01-28T08:45:50.484Z,2.27
2023-01-28T08:48:18.007Z,2.16
2023-01-28T08:50:44.734Z,2.39
2023-01-28T08:53:12.832Z,2.21
2023-01-28T08:55:39.289Z,2.12
2023-01-28T08:58:06.810Z,2.13
2023-01-28T09:00:35.093Z,2.13
2023-01-28T09:03:03.911Z,2.17
2023-01-28T09:05:31.938Z,2.14
2023-01-28T09:08:00.556Z,2.22
2023-01-28T09:10:26.861Z,2.16
2023-01-28T09:12:53.162Z,2.19
2023-01-28T09:15:19.577Z,2.30
2023-01-28T09:17:47.221Z,2.29
2023-01-28T09:20:14.334Z,2.31
2023-01-28T09:22:40.766Z,2.31
2023-01-28T09:25:07.424Z,2.28
2023-01-28T09:27:33.871Z,2.37
2023-01-28T09:30:00.220Z,2.34
2023-01-28T09:32:26.554Z,2.25
2023-01-28T09:34:54.226Z,2.25
2023-01-28T09:37:20.571Z,2.39
2023-01-28T09:39:46.862Z,2.35
2023-01-28T09:42:21.927Z,2.37
2023-01-28T09:44:57.127Z,2.43
2023-01-28T09:47:26.126Z,2.53
2023-01-28T09:49:55.890Z,2.57
2023-01-28T09:52:23.457Z,2.69
2023-01-28T09:54:51.786Z,2.51
2023-01-28T09:57:20.684Z,2.58
2023-01-28T09:59:47.021Z,2.61
2023-01-28T10:02:23.310Z,2.53
2023-01-28T10:04:55.434Z,2.64
2023-01-28T10:07:28.654Z,2.62
2023-01-28T10:09:59.125Z,2.67
2023-01-28T10:12:56.379Z,2.65
2023-01-28T10:15:35.804Z,2.52
2023-01-28T10:18:16.534Z,2.52
2023-01-28T10:20:46.938Z,2.55
2023-01-28T10:23:18.871Z,2.48
2023-01-28T10:25:46.818Z,2.40
2023-01-28T10:28:17.894Z,2.39
2023-01-28T10:30:45.072Z,2.44
2023-01-28T10:33:16.421Z,2.43
2023-01-28T10:35:42.945Z,2.65
2023-01-28T10:38:12.897Z,2.56
2023-01-28T10:40:41.583Z,2.39
2023-01-28T10:43:07.929Z,2.44
2023-01-28T10:45:36.249Z,2.52
2023-01-28T10:48:03.986Z,2.42
2023-01-28T10:50:31.289Z,2.44
2023-01-28T10:52:58.395Z,2.47
2023-01-28T10:55:26.125Z,2.50
2023-01-28T10:57:54.444Z,2.59
2023-01-28T11:00:25.585Z,2.56
2023-01-28T11:02:52.193Z,2.65
2023-01-28T11:05:20.838Z,2.59
2023-01-28T11:07:47.305Z,2.69
2023-01-28T11:10:25.343Z,2.88
2023-01-28T11:12:56.510Z,2.61
2023-01-28T11:15:22.959Z,2.53
2023-01-28T11:17:55.375Z,2.69
2023-01-28T11:20:24.126Z,2.53
2023-01-28T11:22:51.236Z,2.55
2023-01-28T11:25:18.698Z,2.65
2023-01-28T11:27:47.262Z,2.62
2023-01-28T11:30:21.425Z,2.90
2023-01-28T11:32:54.407Z,2.78
2023-01-28T11:35:24.888Z,3.00
2023-01-28T11:37:51.209Z,2.89
2023-01-28T11:40:20.570Z,3.00
2023-01-28T11:42:47.986Z,2.50
2023-01-28T11:45:16.193Z,2.82
2023-01-28T11:47:50.664Z,2.55
2023-01-28T11:50:22.560Z,2.36
2023-01-28T11:53:06.801Z,2.50
2023-01-28T11:55:54.001Z,2.34
2023-01-28T11:58:21.845Z,2.31
2023-01-28T12:00:51.993Z,2.42
2023-01-28T12:03:28.537Z,2.50
2023-01-28T12:05:57.174Z,2.48
2023-01-28T12:08:24.238Z,2.62
2023-01-28T12:11:04.950Z,2.71
2023-01-28T12:13:37.459Z,2.76
2023-01-28T12:16:11.904Z,2.71
2023-01-28T12:18:47.114Z,2.49
2023-01-28T12:21:16.719Z,2.51
2023-01-28T12:23:52.616Z,2.59
2023-01-28T12:26:25.402Z,2.69
2023-01-28T12:28:54.721Z,2.71
2023-01-28T12:31:31.649Z,2.75
2023-01-28T12:34:08.224Z,2.82
2023-01-28T12:36:42.251Z,2.95
2023-01-28T12:39:12.987Z,2.97
2023-01-28T12:41:41.804Z,3.02
2023-01-28T12:44:11.063Z,3.08
2023-01-28T12:46:41.345Z,3.18
2023-01-28T12:49:14.599Z,3.13
2023-01-28T12:51:46.821Z,3.18
2023-01-28T12:54:16.842Z,3.20
2023-01-28T12:56:44.233Z,3.10
2023-01-28T12:59:12.488Z,3.06
2023-01-28T13:01:41.949Z,3.04
2023-01-28T13:04:13.584Z,3.07
2023-01-28T13:06:42.072Z,2.95
2023-01-28T13:09:12.721Z,2.97
2023-01-28T13:11:39.471Z,3.01
2023-01-28T13:14:05.944Z,3.00
2023-01-28T13:16:37.864Z,3.08
2023-01-28T13:19:06.347Z,2.98
2023-01-28T13:21:47.618Z,2.95
2023-01-28T13:24:23.661Z,2.97
2023-01-28T13:26:50.692Z,2.92
2023-01-28T13:29:22.203Z,2.86
2023-01-28T13:31:51.839Z,2.84
2023-01-28T13:34:29.217Z,2.86
2023-01-28T13:36:58.091Z,2.93
2023-01-28T13:39:26.037Z,2.95
2023-01-28T13:41:53.235Z,2.87
2023-01-28T13:44:21.507Z,2.97
2023-01-28T13:46:47.871Z,2.89
2023-01-28T13:49:15.914Z,2.95
2023-01-28T13:51:50.677Z,2.95
2023-01-28T13:54:20.910Z,3.05
2023-01-28T13:56:55.861Z,3.02
2023-01-28T13:59:32.973Z,2.92
2023-01-28T14:02:19.607Z,2.85
2023-01-28T14:04:57.797Z,2.89
2023-01-28T14:07:43.950Z,2.96
2023-01-28T14:10:20.796Z,3.02
2023-01-28T14:13:09.772Z,3.02
2023-01-28T14:15:54.852Z,3.04
2023-01-28T14:18:24.978Z,3.11
2023-01-28T14:20:52.281Z,3.08
2023-01-28T14:23:19.434Z,3.01
2023-01-28T14:25:55.016Z,3.02
2023-01-28T14:28:31.089Z,3.01
2023-01-28T14:31:01.555Z,2.96
2023-01-28T14:33:27.936Z,2.89
2023-01-28T14:35:55.413Z,2.80
2023-01-28T14:38:22.222Z,2.72
2023-01-28T14:40:51.581Z,2.72
2023-01-28T14:43:20.316Z,2.70
2023-01-28T14:45:56.852Z,2.68
2023-01-28T14:48:24.603Z,2.61
2023-01-28T14:51:14.121Z,2.59
2023-01-28T14:53:48.739Z,2.57
2023-01-28T14:56:21.923Z,2.52
2023-01-28T14:58:50.334Z,2.50
2023-01-28T15:01:20.285Z,2.46
2023-01-28T15:03:46.624Z,2.45
2023-01-28T15:06:13.919Z,2.39
2023-01-28T15:08:40.528Z,2.36
2023-01-28T15:11:08.497Z,2.40
2023-01-28T15:13:38.830Z,2.48
2023-01-28T15:16:05.721Z,2.50
2023-01-28T15:18:33.966Z,2.49
2023-01-28T15:21:00.747Z,2.49
2023-01-28T15:23:28.593Z,2.50
2023-01-28T15:25:55.117Z,2.49
2023-01-28T15:28:25.273Z,2.49
2023-01-28T15:30:53.010Z,2.47
2023-01-28T15:33:20.598Z,2.48
2023-01-28T15:35:46.997Z,2.58
2023-01-28T15:38:13.319Z,2.54
2023-01-28T15:40:41.888Z,2.49
2023-01-28T15:43:12.881Z,2.44
2023-01-28T15:45:44.484Z,2.39
2023-01-28T15:48:12.289Z,2.31
2023-01-28T15:50:40.119Z,2.20
2023-01-28T15:53:08.265Z,2.13
2023-01-28T15:55:36.371Z,2.08
2023-01-28T15:58:19.570Z,2.00
2023-01-28T16:00:46.313Z,1.92
2023-01-28T16:03:19.258Z,1.86
2023-01-28T16:05:54.780Z,1.78
2023-01-28T16:08:25.675Z,1.72
2023-01-28T16:10:52.349Z,1.67
2023-01-28T16:13:21.574Z,1.66
2023-01-28T16:15:50.016Z,1.64
2023-01-28T16:18:23.893Z,1.58
2023-01-28T16:20:50.233Z,1.50
2023-01-28T16:23:20.553Z,1.44
2023-01-28T16:25:46.882Z,1.34
2023-01-28T16:28:17.059Z,1.29
2023-01-28T16:30:43.449Z,1.22
2023-01-28T16:33:17.387Z,1.13
2023-01-28T16:36:04.441Z,1.08
2023-01-28T16:38:31.409Z,1.03
2023-01-28T16:40:58.722Z,0.97
2023-01-28T16:43:25.038Z,0.93
2023-01-28T16:45:51.317Z,0.88
2023-01-28T16:48:17.636Z,0.82
2023-01-28T16:50:45.446Z,0.72
2023-01-28T16:53:17.923Z,0.68
2023-01-28T16:55:44.277Z,0.57
2023-01-28T16:58:10.709Z,0.43
2023-01-28T17:00:37.107Z,0.27
2023-01-28T17:03:03.396Z,0.20
2023-01-28T17:05:29.980Z,0.17
2023-01-28T17:07:57.604Z,0.15
2023-01-28T17:10:23.932Z,0.13
2023-01-28T17:12:50.267Z,0.14
2023-01-28T17:15:17.201Z,0.17
2023-01-28T17:17:43.802Z,0.12
2023-01-28T17:20:10.902Z,0.10
2023-01-28T17:22:39.270Z,-0.01
2023-01-28T17:25:08.130Z,-0.03
2023-01-28T17:27:34.439Z,-0.08
2023-01-28T17:30:00.756Z,-0.09
2023-01-28T17:32:27.135Z,-0.08
2023-01-28T17:34:53.445Z,-0.08
2023-01-28T17:37:19.810Z,-0.14
2023-01-28T17:39:46.133Z,-0.16
2023-01-28T17:42:13.795Z,-0.15
2023-01-28T17:44:40.099Z,-0.17
2023-01-28T17:47:06.434Z,-0.24
2023-01-28T17:49:32.871Z,-0.27
2023-01-28T17:51:59.206Z,-0.27
2023-01-28T17:54:25.737Z,-0.29
2023-01-28T17:56:52.083Z,-0.36
2023-01-28T17:59:19.889Z,-0.47
2023-01-28T18:01:46.229Z,-0.57
2023-01-28T18:04:12.560Z,-0.66
2023-01-28T18:06:38.919Z,-0.74
2023-01-28T18:09:05.560Z,-0.78
2023-01-28T18:11:31.875Z,-0.84
2023-01-28T18:13:58.331Z,-0.91
2023-01-28T18:16:26.058Z,-0.90
2023-01-28T18:18:52.438Z,-0.89
2023-01-28T18:21:20.262Z,-0.87
2023-01-28T18:23:46.619Z,-0.85
2023-01-28T18:26:12.990Z,-0.83
2023-01-28T18:28:39.284Z,-0.85
2023-01-28T18:31:06.291Z,-0.91
2023-01-28T18:33:34.120Z,-0.98
2023-01-28T18:36:00.466Z,-1.04
2023-01-28T18:38:26.805Z,-1.05
2023-01-28T18:40:54.416Z,-1.06
2023-01-28T18:43:20.871Z,-1.06
2023-01-28T18:45:47.229Z,-1.17
2023-01-28T18:48:13.521Z,-1.23
2023-01-28T18:50:41.204Z,-1.21
2023-01-28T18:53:07.606Z,-1.20
2023-01-28T18:55:33.937Z,-1.21
2023-01-28T18:58:00.236Z,-1.20
2023-01-28T19:00:26.659Z,-1.13
2023-01-28T19:02:53.033Z,-1.11
2023-01-28T19:05:19.419Z,-1.10
2023-01-28T19:07:47.264Z,-1.08
2023-01-28T19:10:13.569Z,-1.08
2023-01-28T19:12:39.922Z,-1.09
2023-01-28T19:15:06.921Z,-1.11
2023-01-28T19:17:35.425Z,-1.08
2023-01-28T19:20:01.870Z,-1.06
2023-01-28T19:22:28.177Z,-1.04
2023-01-28T19:24:55.787Z,-1.06
2023-01-28T19:27:22.085Z,-1.08
2023-01-28T19:29:48.788Z,-1.10
2023-01-28T19:32:15.113Z,-1.11
2023-01-28T19:34:41.434Z,-1.10
2023-01-28T19:37:07.775Z,-1.07
2023-01-28T19:39:34.097Z,-1.12
2023-01-28T19:42:01.753Z,-1.20
2023-01-28T19:44:28.072Z,-1.25
2023-01-28T19:46:54.433Z,-1.38
2023-01-28T19:49:20.753Z,-1.42
2023-01-28T19:51:47.100Z,-1.44
2023-01-28T19:54:13.445Z,-1.47
2023-01-28T19:56:39.727Z,-1.48
2023-01-28T19:59:07.391Z,-1.43
2023-01-28T20:01:33.821Z,-1.40
2023-01-28T20:04:00.464Z,-1.37
2023-01-28T20:06:27.747Z,-1.37
2023-01-28T20:08:54.885Z,-1.39
2023-01-28T20:11:21.577Z,-1.43
2023-01-28T20:13:48.997Z,-1.50
2023-01-28T20:16:19.903Z,-1.55
2023-01-28T20:18:48.509Z,-1.60
2023-01-28T20:21:14.845Z,-1.67
2023-01-28T20:23:41.137Z,-1.65
2023-01-28T20:26:07.463Z,-1.62
2023-01-28T20:28:33.821Z,-1.60
2023-01-28T20:31:03.890Z,-1.59
2023-01-28T20:33:31.665Z,-1.62
2023-01-28T20:36:00.195Z,-1.62
2023-01-28T20:38:26.522Z,-1.59
2023-01-28T20:40:52.816Z,-1.60
2023-01-28T20:43:19.111Z,-1.58
2023-01-28T20:45:45.615Z,-1.55
2023-01-28T20:48:12.201Z,-1.52
2023-01-28T20:50:39.990Z,-1.51
2023-01-28T20:53:06.316Z,-1.54
2023-01-28T20:55:33.521Z,-1.57
2023-01-28T20:57:59.898Z,-1.56
2023-01-28T21:00:26.607Z,-1.54
2023-01-28T21:02:55.306Z,-1.51
2023-01-28T21:05:21.826Z,-1.54
2023-01-28T21:07:49.521Z,-1.61
2023-01-28T21:10:16.518Z,-1.58
2023-01-28T21:12:43.021Z,-1.58
2023-01-28T21:15:09.832Z,-1.62
2023-01-28T21:17:36.157Z,-1.62
2023-01-28T21:20:04.366Z,-1.65
2023-01-28T21:22:30.733Z,-1.67
2023-01-28T21:24:58.442Z,-1.69
2023-01-28T21:27:24.831Z,-1.70
2023-01-28T21:29:51.605Z,-1.75
2023-01-28T21:32:18.984Z,-1.77
2023-01-28T21:34:45.336Z,-1.79
2023-01-28T21:37:11.709Z,-1.83
2023-01-28T21:39:38.365Z,-1.86
2023-01-28T21:42:08.388Z,-1.94
2023-01-28T21:44:34.732Z,-1.97
2023-01-28T21:47:01.053Z,-1.91
2023-01-28T21:49:27.521Z,-1.90
2023-01-28T21:51:53.970Z,-1.91
2023-01-28T21:54:20.330Z,-1.89
2023-01-28T21:56:47.623Z,-1.90
2023-01-28T21:59:16.140Z,-1.94
2023-01-28T22:01:42.925Z,-1.95
2023-01-28T22:04:09.298Z,-2.06
2023-01-28T22:06:35.578Z,-2.13
2023-01-28T22:09:01.933Z,-2.14
2023-01-28T22:11:28.237Z,-2.15
2023-01-28T22:13:54.557Z,-2.25
2023-01-28T22:16:22.320Z,-2.36
2023-01-28T22:18:48.668Z,-2.38
2023-01-28T22:21:14.977Z,-2.40
2023-01-28T22:23:41.575Z,-2.36
2023-01-28T22:26:08.244Z,-2.34
2023-01-28T22:28:36.344Z,-2.36
2023-01-28T22:31:06.822Z,-2.37
2023-01-28T22:33:35.235Z,-2.37
2023-01-28T22:36:01.846Z,-2.35
2023-01-28T22:38:28.170Z,-2.31
2023-01-28T22:40:54.472Z,-2.26
2023-01-28T22:43:20.779Z,-2.21
2023-01-28T22:45:47.085Z,-2.20
2023-01-28T22:48:13.411Z,-2.21
2023-01-28T22:50:41.082Z,-2.23
2023-01-28T22:53:07.389Z,-2.29
2023-01-28T22:55:33.713Z,-2.37
2023-01-28T22:57:59.996Z,-2.41
2023-01-28T23:00:27.026Z,-2.41
2023-01-28T23:02:53.341Z,-2.35
2023-01-28T23:05:19.688Z,-2.32
2023-01-28T23:07:47.307Z,-2.31
2023-01-28T23:10:14.005Z,-2.34
2023-01-28T23:12:40.625Z,-2.34
2023-01-28T23:15:07.410Z,-2.36
2023-01-28T23:17:33.723Z,-2.35
2023-01-28T23:20:00.044Z,-2.33
2023-01-28T23:22:28.032Z,-2.32
2023-01-28T23:24:55.702Z,-2.30
2023-01-28T23:27:21.973Z,-2.28
2023-01-28T23:29:48.235Z,-2.29
2023-01-28T23:32:14.539Z,-2.31
2023-01-28T23:34:41.945Z,-2.30
2023-01-28T23:37:09.448Z,-2.30
2023-01-28T23:39:36.021Z,-2.29
2023-01-28T23:42:10.116Z,-2.30
2023-01-28T23:44:36.391Z,-2.31
2023-01-28T23:47:02.714Z,-2.32
2023-01-28T23:49:29.032Z,-2.33
2023-01-28T23:51:55.366Z,-2.35
2023-01-28T23:54:21.678Z,-2.37
2023-01-28T23:56:47.980Z,-2.40
2023-01-28T23:59:15.636Z,-2.41
